Averill Park, NY

4:15 PM EST on January 30, 2015 (GMT -0500)
Harriman And West | Change Station
CLOSE
Current Station
Airport
Location: North Adams,
Elevation: 653 ft
Nearby Weather Stations
Active Advisory: Wind Chill Advisory Active Notice: Public Information Statement

Elev 653 ft 42.70 °N, 73.17 °W | Updated 23 minutes ago

Snow
Snow
25 °F
Feels Like 16 °F
N
8
Wind Variable Wind from NW

Today
High -- | Low -- °F
--% Chance of Precip.
Yesterday
High -- | Low -- °F
Precip. -- in
7:10 AM 5:04 PM
Waxing Gibbous, 85% visible
Pressure 29.86 in
Visibility 0.8 miles
Clouds Mostly Cloudy 2200 ft
Overcast 2800 ft
Windchill 16 °F
Dew Point 20 °F
Humidity 81%
Rainfall 0.05 in
Snow Depth Not available.
UV 0 out of 12
Pollen .10 out of 12
Air Quality Not available.
Flu Activity Not available.
METAR KAQW 302052Z AUTO 32007KT 3/4SM -SN BKN022 OVC028 M04/M07 A2982 RMK AO2 SLP109 P0000 60000 T10391067 51017

More Conditions Fewer Conditions

Pressure 29.86 in
Visibility 0.8 miles
Clouds Mostly Cloudy 2200 ft
Overcast 2800 ft
Windchill 16 °F
Dew Point 20 °F
Humidity 81%
Rainfall 0.05 in
Snow Depth Not available.
UV 0 out of 12
Pollen .10 out of 12
Air Quality Not available.
Flu Activity Not available.
METAR KAQW 302052Z AUTO 32007KT 3/4SM -SN BKN022 OVC028 M04/M07 A2982 RMK AO2 SLP109 P0000 60000 T10391067 51017

More Conditions Fewer Conditions

10-Day Weather Forecast

Almanac

Astronomy

Jan. 30, 2015 Rise Set
Actual Time
Civil Twilight
Nautical Twilight
Astronomical Twilight
Moon
Length of Visible Light
Length of Day
Tomorrow will be .
, % of the Moon is Illuminated

Today's Extremes

State Highs State Lows

Community

WunderPhotos

Upload Photos

1,791,895 photos uploaded!

WunderBlogs® & News

Nearby

Air Quality

  Air Quality AQ Index Pollutant
Not available.

Snow Depth

Station Depth Elevation

Earthquake Activity

City Distance Mag. Time & Date
Minimum magnitude displayed is 2.5.

Coastal Water Temperatures

Place Temperature

Nearby Weather Stations